Atlanta, Georgia
Current Conditions -  °F | °C
As of 5:17 AM on Monday 26 Jan 2015 (Local Time) from KATL Reporting Station
Broken Clouds Broken Clouds  
Wind Chill:   Ceiling: 1800
Heat Index:   Visibility: 10mi
Dew Point:   Wind: 9mph
Humidity: 81%   Direction: 260°W
Pressure: 29.75"   Gusts: NA
Location:  33.75°N, 84.39°W
Report Text: KATL 261017Z 26008KT 10SM BKN018 BKN035 07/04 A2975 RMK AO2 BKN018 V SCT
Loading
Personal Weather Stations






























Interactive Weather Map New forecast layout! Learn more

10-Day Weather Forecast

Advertisements
Track Severe Weather on mobile